createdAt,value
2019-02-22T00:00:44.142Z,60.05
2019-02-22T00:03:12.541Z,59.80
2019-02-22T00:05:40.851Z,63.85
2019-02-22T00:08:09.149Z,61.92
2019-02-22T00:10:37.475Z,60.12
2019-02-22T00:13:05.779Z,61.63
2019-02-22T00:15:36.301Z,66.20
2019-02-22T00:18:04.175Z,59.53
2019-02-22T00:20:32.812Z,60.10
2019-02-22T00:23:01.109Z,68.15
2019-02-22T00:25:29.399Z,68.15
2019-02-22T00:27:57.748Z,67.03
2019-02-22T00:30:26.157Z,67.43
2019-02-22T00:32:54.826Z,66.10
2019-02-22T00:35:23.155Z,66.20
2019-02-22T00:37:51.476Z,67.37
2019-02-22T00:40:20.036Z,65.13
2019-02-22T00:42:50.265Z,69.05
2019-02-22T00:45:18.763Z,74.10
2019-02-22T00:47:47.093Z,71.92
2019-02-22T00:50:15.420Z,76.70
2019-02-22T00:52:43.791Z,72.27
2019-02-22T00:55:12.104Z,72.75
2019-02-22T00:57:40.482Z,76.28
2019-02-22T01:00:09.959Z,79.03
2019-02-22T01:02:38.263Z,79.60
2019-02-22T01:05:06.869Z,76.35
2019-02-22T01:07:35.175Z,76.25
2019-02-22T01:10:03.883Z,76.82
2019-02-22T01:12:32.430Z,82.45
2019-02-22T01:15:01.031Z,78.28
2019-02-22T01:17:29.330Z,75.17
2019-02-22T01:19:57.671Z,76.62
2019-02-22T01:22:25.979Z,79.10
2019-02-22T01:24:54.302Z,74.47
2019-02-22T01:27:22.598Z,78.90
2019-02-22T01:29:50.896Z,83.55
2019-02-22T01:32:19.216Z,80.40
2019-02-22T01:34:47.522Z,83.47
2019-02-22T01:37:16.153Z,78.55
2019-02-22T01:39:44.446Z,77.85
2019-02-22T01:42:12.769Z,78.80
2019-02-22T01:44:41.395Z,76.50
2019-02-22T01:47:09.783Z,75.25
2019-02-22T01:49:38.441Z,73.90
2019-02-22T01:52:06.737Z,80.25
2019-02-22T01:54:35.058Z,75.47
2019-02-22T01:57:03.353Z,73.22
2019-02-22T01:59:31.660Z,69.00
2019-02-22T02:01:59.984Z,71.80
2019-02-22T02:04:28.301Z,76.80
2019-02-22T02:06:56.889Z,66.42
2019-02-22T02:09:25.235Z,72.60
2019-02-22T02:11:53.513Z,66.80
2019-02-22T02:14:21.830Z,75.55
2019-02-22T02:16:50.146Z,71.75
2019-02-22T02:19:18.522Z,69.20
2019-02-22T02:21:47.096Z,73.75
2019-02-22T02:24:15.412Z,71.27
2019-02-22T02:26:43.718Z,66.63
2019-02-22T02:29:12.050Z,73.35
2019-02-22T02:31:40.366Z,69.85
2019-02-22T02:34:08.950Z,75.35
2019-02-22T02:36:37.258Z,72.40
2019-02-22T02:39:07.987Z,72.97
2019-02-22T02:41:36.344Z,72.05
2019-02-22T02:44:04.675Z,71.45
2019-02-22T02:46:33.076Z,70.67
2019-02-22T02:49:01.404Z,71.17
2019-02-22T02:51:29.742Z,71.63
2019-02-22T02:53:58.055Z,74.37
2019-02-22T02:56:26.368Z,70.00
2019-02-22T02:58:54.695Z,67.62
2019-02-22T03:01:23.280Z,72.25
2019-02-22T03:03:51.598Z,68.20
2019-02-22T03:06:21.586Z,66.33
2019-02-22T03:08:49.898Z,68.47
2019-02-22T03:11:21.086Z,71.12
2019-02-22T03:13:48.249Z,70.37
2019-02-22T03:16:16.623Z,70.87
2019-02-22T03:18:44.930Z,65.33
2019-02-22T03:21:13.244Z,69.43
2019-02-22T03:23:41.554Z,62.83
2019-02-22T03:26:09.981Z,70.20
2019-02-22T03:28:38.621Z,67.55
2019-02-22T03:31:06.922Z,66.72
2019-02-22T03:33:35.565Z,69.60
2019-02-22T03:36:03.861Z,72.37
2019-02-22T03:38:32.283Z,67.78
2019-02-22T03:41:00.902Z,71.55
2019-02-22T03:43:29.253Z,68.10
2019-02-22T03:45:57.541Z,66.17
2019-02-22T03:48:25.879Z,67.80
2019-02-22T03:50:54.172Z,68.45
2019-02-22T03:53:30.437Z,71.57
2019-02-22T03:55:58.718Z,67.22
2019-02-22T03:58:27.042Z,66.90
2019-02-22T04:00:55.356Z,67.03
2019-02-22T04:03:23.649Z,62.90
2019-02-22T04:05:51.974Z,69.53
2019-02-22T04:08:20.271Z,61.57
2019-02-22T04:10:48.583Z,64.70
2019-02-22T04:13:16.955Z,65.78
2019-02-22T04:15:45.452Z,63.58
2019-02-22T04:18:13.755Z,59.15
2019-02-22T04:20:42.088Z,59.48
2019-02-22T04:23:10.423Z,58.73
2019-02-22T04:25:38.993Z,58.73
2019-02-22T04:28:07.400Z,57.88
2019-02-22T04:30:37.829Z,55.98
2019-02-22T04:33:05.810Z,55.03
2019-02-22T04:35:34.130Z,54.93
2019-02-22T04:38:02.432Z,57.45
2019-02-22T04:40:30.742Z,56.27
2019-02-22T04:42:59.056Z,57.13
2019-02-22T04:45:27.364Z,51.80
2019-02-22T04:47:55.696Z,57.00
2019-02-22T04:50:23.983Z,53.30
2019-02-22T04:52:52.314Z,55.35
2019-02-22T04:55:20.647Z,57.53
2019-02-22T04:57:49.252Z,56.43
2019-02-22T05:00:17.839Z,58.05
2019-02-22T05:02:46.267Z,61.60
2019-02-22T05:05:15.425Z,59.55
2019-02-22T05:07:43.752Z,59.37
2019-02-22T05:10:12.069Z,58.38
2019-02-22T05:12:40.405Z,55.17
2019-02-22T05:15:12.579Z,64.58
2019-02-22T05:17:38.739Z,59.40
2019-02-22T05:20:07.058Z,59.05
2019-02-22T05:22:35.377Z,59.25
2019-02-22T05:25:04.875Z,60.78
2019-02-22T05:27:33.184Z,58.33
2019-02-22T05:30:01.509Z,54.70
2019-02-22T05:32:29.805Z,59.55
2019-02-22T05:34:58.128Z,56.33
2019-02-22T05:37:26.451Z,58.02
2019-02-22T05:39:55.187Z,58.17
2019-02-22T05:42:23.534Z,54.67
2019-02-22T05:44:51.785Z,55.78
2019-02-22T05:47:20.143Z,58.60
2019-02-22T05:49:48.506Z,79.27
2019-02-22T05:52:16.902Z,57.62
2019-02-22T05:54:45.205Z,54.25
2019-02-22T05:57:14.412Z,51.55
2019-02-22T05:59:42.818Z,53.75
2019-02-22T06:02:14.393Z,53.15
2019-02-22T06:04:41.548Z,50.90
2019-02-22T06:07:09.891Z,55.92
2019-02-22T06:09:38.199Z,54.43
2019-02-22T06:12:06.565Z,52.80
2019-02-22T06:14:35.244Z,52.85
2019-02-22T06:17:13.886Z,52.38
2019-02-22T06:19:33.600Z,51.35
2019-02-22T06:22:01.904Z,48.05
2019-02-22T06:24:30.211Z,50.83
2019-02-22T06:26:58.504Z,54.10
2019-02-22T06:29:26.859Z,56.30
2019-02-22T06:31:55.626Z,57.48
2019-02-22T06:34:24.180Z,56.35
2019-02-22T06:37:01.651Z,54.13
2019-02-22T06:39:23.130Z,56.37
2019-02-22T06:41:51.464Z,54.18
2019-02-22T06:44:19.773Z,58.58
2019-02-22T06:46:48.080Z,57.17
2019-02-22T06:49:16.399Z,54.73
2019-02-22T06:51:44.700Z,55.63
2019-02-22T06:54:13.274Z,54.83
2019-02-22T06:56:41.599Z,55.03
2019-02-22T06:59:09.897Z,54.55
2019-02-22T07:01:38.209Z,53.42
2019-02-22T07:04:06.624Z,61.30
2019-02-22T07:06:34.948Z,59.63
2019-02-22T07:09:06.851Z,53.83
2019-02-22T07:11:37.898Z,53.38
2019-02-22T07:14:06.562Z,51.73
2019-02-22T07:16:34.867Z,54.55
2019-02-22T07:19:03.179Z,49.98
2019-02-22T07:21:43.760Z,47.73
2019-02-22T07:24:02.694Z,48.15
2019-02-22T07:26:31.108Z,51.30
2019-02-22T07:28:59.421Z,48.20
2019-02-22T07:31:27.712Z,51.47
2019-02-22T07:33:56.034Z,49.63
2019-02-22T07:36:24.408Z,48.17
2019-02-22T07:38:52.990Z,46.08
2019-02-22T07:41:21.290Z,49.20
2019-02-22T07:43:49.612Z,46.87
2019-02-22T07:46:17.911Z,50.30
2019-02-22T07:48:46.225Z,48.05
2019-02-22T07:51:14.528Z,47.83
2019-02-22T07:53:42.839Z,48.95
2019-02-22T07:56:11.186Z,48.78
2019-02-22T07:58:39.576Z,47.17
2019-02-22T08:01:07.888Z,53.80
2019-02-22T08:03:37.395Z,49.33
2019-02-22T08:06:05.834Z,48.63
2019-02-22T08:08:34.132Z,46.95
2019-02-22T08:11:02.501Z,49.10
2019-02-22T08:13:30.864Z,46.00
2019-02-22T08:15:59.499Z,49.00
2019-02-22T08:18:27.839Z,45.95
2019-02-22T08:20:56.146Z,45.85
2019-02-22T08:23:24.468Z,46.97
2019-02-22T08:25:53.135Z,47.40
2019-02-22T08:28:21.458Z,45.48
2019-02-22T08:30:49.771Z,41.77
2019-02-22T08:33:18.110Z,45.30
2019-02-22T08:35:46.416Z,41.60
2019-02-22T08:38:14.746Z,41.63
2019-02-22T08:40:43.053Z,40.75
2019-02-22T08:43:11.382Z,42.50
2019-02-22T08:45:39.685Z,40.90
2019-02-22T08:48:08.327Z,40.00
2019-02-22T08:50:36.638Z,40.78
2019-02-22T08:53:04.945Z,40.83
2019-02-22T08:55:33.254Z,42.23
2019-02-22T08:58:01.564Z,37.23
2019-02-22T09:00:29.921Z,39.35
2019-02-22T09:02:58.214Z,42.62
2019-02-22T09:05:26.889Z,40.85
2019-02-22T09:07:55.198Z,35.75
2019-02-22T09:10:23.514Z,37.40
2019-02-22T09:12:51.829Z,34.87
2019-02-22T09:15:20.186Z,36.10
2019-02-22T09:17:48.479Z,38.25
2019-02-22T09:20:16.806Z,39.73
2019-02-22T09:22:45.111Z,35.83
2019-02-22T09:25:13.434Z,36.00
2019-02-22T09:27:41.730Z,34.03
2019-02-22T09:30:11.871Z,35.92
2019-02-22T09:32:40.198Z,34.55
2019-02-22T09:35:10.717Z,34.60
2019-02-22T09:37:39.092Z,34.90
2019-02-22T09:40:10.144Z,37.53
2019-02-22T09:42:38.902Z,35.92
2019-02-22T09:45:10.148Z,33.40
2019-02-22T09:47:38.477Z,34.18
2019-02-22T09:50:09.826Z,33.05
2019-02-22T09:52:38.158Z,30.08
2019-02-22T09:55:08.998Z,28.50
2019-02-22T09:57:37.566Z,30.15
2019-02-22T10:00:14.669Z,29.07
2019-02-22T10:02:44.931Z,30.77
2019-02-22T10:05:13.101Z,27.90
2019-02-22T10:07:41.395Z,33.18
2019-02-22T10:10:11.719Z,29.02
2019-02-22T10:12:40.026Z,30.82
2019-02-22T10:15:09.489Z,29.85
2019-02-22T10:17:37.797Z,31.68
2019-02-22T10:20:08.883Z,31.37
2019-02-22T10:22:37.191Z,23.83
2019-02-22T10:25:06.723Z,29.87
2019-02-22T10:27:35.318Z,26.43
2019-02-22T10:30:04.824Z,23.55
2019-02-22T10:32:33.157Z,25.95
2019-02-22T10:35:01.493Z,27.22
2019-02-22T10:37:29.800Z,26.25
2019-02-22T10:39:58.107Z,25.75
2019-02-22T10:42:26.723Z,27.53
2019-02-22T10:44:55.029Z,29.23
2019-02-22T10:47:23.355Z,29.60
2019-02-22T10:49:51.953Z,32.60
2019-02-22T10:52:20.287Z,34.70
2019-02-22T10:54:48.587Z,30.90
2019-02-22T10:57:16.898Z,30.10
2019-02-22T10:59:45.212Z,27.23
2019-02-22T11:02:13.542Z,32.15
2019-02-22T11:04:41.865Z,26.57
2019-02-22T11:07:10.176Z,26.85
2019-02-22T11:09:38.755Z,27.02
2019-02-22T11:12:07.098Z,26.57
2019-02-22T11:14:35.403Z,25.90
2019-02-22T11:17:03.771Z,26.55
2019-02-22T11:19:32.400Z,24.80
2019-02-22T11:22:01.080Z,23.20
2019-02-22T11:24:29.386Z,23.22
2019-02-22T11:26:58.047Z,25.68
2019-02-22T11:29:26.644Z,23.70
2019-02-22T11:31:55.064Z,25.45
2019-02-22T11:34:23.378Z,25.50
2019-02-22T11:36:51.708Z,28.20
2019-02-22T11:39:20.773Z,28.13
2019-02-22T11:41:49.087Z,30.32
2019-02-22T11:44:17.398Z,23.02
2019-02-22T11:46:45.716Z,30.32
2019-02-22T11:49:14.047Z,26.80
2019-02-22T11:51:42.366Z,27.50
2019-02-22T11:54:11.034Z,29.23
2019-02-22T11:56:39.329Z,30.85
2019-02-22T11:59:07.669Z,27.32
2019-02-22T12:01:36.035Z,25.27
2019-02-22T12:04:04.439Z,26.50
2019-02-22T12:06:32.728Z,31.83
2019-02-22T12:09:01.070Z,30.10
2019-02-22T12:11:29.361Z,28.05
2019-02-22T12:13:57.691Z,30.72
2019-02-22T12:16:26.016Z,27.73
2019-02-22T12:18:54.335Z,29.10
2019-02-22T12:21:23.194Z,27.60
2019-02-22T12:23:53.014Z,23.20
2019-02-22T12:26:21.423Z,27.20
2019-02-22T12:28:49.734Z,36.38
2019-02-22T12:31:18.052Z,32.75
2019-02-22T12:33:46.437Z,32.30
2019-02-22T12:36:14.755Z,35.93
2019-02-22T12:38:43.087Z,28.80
2019-02-22T12:41:11.466Z,30.08
2019-02-22T12:43:39.814Z,34.10
2019-02-22T12:46:08.148Z,37.13
2019-02-22T12:48:36.515Z,33.13
2019-02-22T12:51:04.843Z,27.82
2019-02-22T12:53:33.138Z,27.40
2019-02-22T12:56:01.457Z,27.70
2019-02-22T12:58:29.775Z,31.62
2019-02-22T13:00:58.092Z,29.87
2019-02-22T13:03:26.391Z,35.90
2019-02-22T13:05:54.729Z,35.48
2019-02-22T13:08:23.460Z,29.23
2019-02-22T13:10:51.795Z,29.27
2019-02-22T13:13:20.108Z,29.95
2019-02-22T13:15:48.413Z,30.82
2019-02-22T13:18:16.725Z,28.45
2019-02-22T13:20:45.040Z,30.55
2019-02-22T13:23:13.404Z,27.40
2019-02-22T13:25:41.717Z,30.20
2019-02-22T13:28:10.338Z,31.33
2019-02-22T13:30:38.939Z,31.03
2019-02-22T13:33:07.247Z,31.37
2019-02-22T13:35:35.558Z,31.60
2019-02-22T13:38:04.120Z,33.08
2019-02-22T13:40:32.557Z,39.40
2019-02-22T13:43:00.885Z,32.20
2019-02-22T13:45:29.218Z,36.60
2019-02-22T13:47:57.542Z,34.40
2019-02-22T13:50:25.858Z,26.80
2019-02-22T13:52:54.217Z,26.43
2019-02-22T13:55:22.831Z,29.00
2019-02-22T13:57:51.135Z,27.80
2019-02-22T14:00:20.284Z,32.13
2019-02-22T14:02:48.699Z,32.40
2019-02-22T14:05:17.101Z,34.80
2019-02-22T14:07:55.469Z,33.42
2019-02-22T14:10:24.493Z,35.78
2019-02-22T14:12:53.129Z,35.95
2019-02-22T14:15:22.021Z,34.38
2019-02-22T14:17:50.383Z,33.65
2019-02-22T14:20:19.390Z,33.75
2019-02-22T14:22:49.319Z,34.70
2019-02-22T14:25:17.715Z,32.63
2019-02-22T14:27:46.373Z,32.40
2019-02-22T14:30:18.206Z,33.55
2019-02-22T14:32:46.686Z,33.38
2019-02-22T14:35:14.989Z,34.43
2019-02-22T14:37:43.368Z,30.30
2019-02-22T14:40:12.753Z,34.18
2019-02-22T14:42:41.097Z,33.10
2019-02-22T14:45:10.740Z,32.35
2019-02-22T14:47:39.153Z,35.25
2019-02-22T14:50:13.172Z,34.03
2019-02-22T14:52:41.476Z,34.55
2019-02-22T14:55:10.070Z,45.00
2019-02-22T14:57:38.367Z,34.55
2019-02-22T15:00:12.300Z,35.05
2019-02-22T15:02:40.625Z,35.52
2019-02-22T15:05:10.072Z,35.90
2019-02-22T15:07:38.392Z,39.10
2019-02-22T15:10:08.990Z,38.98
2019-02-22T15:12:37.297Z,41.67
2019-02-22T15:15:21.087Z,36.33
2019-02-22T15:17:51.039Z,35.08
2019-02-22T15:20:19.338Z,38.05
2019-02-22T15:22:47.656Z,37.75
2019-02-22T15:25:17.439Z,35.20
2019-02-22T15:27:46.069Z,36.13
2019-02-22T15:30:16.095Z,37.90
2019-02-22T15:32:44.406Z,37.42
2019-02-22T15:35:15.337Z,37.80
2019-02-22T15:37:43.683Z,41.73
2019-02-22T15:40:12.770Z,39.50
2019-02-22T15:42:41.098Z,43.83
2019-02-22T15:45:17.697Z,46.75
2019-02-22T15:47:48.637Z,41.45
2019-02-22T15:50:16.979Z,43.00
2019-02-22T15:52:46.177Z,46.70
2019-02-22T15:55:14.614Z,44.17
2019-02-22T15:57:42.984Z,46.10
2019-02-22T16:00:14.771Z,47.05
2019-02-22T16:02:43.099Z,46.95
2019-02-22T16:05:13.109Z,45.58
2019-02-22T16:07:44.662Z,45.20
2019-02-22T16:10:11.638Z,45.23
2019-02-22T16:12:40.035Z,38.70
2019-02-22T16:15:10.110Z,37.35
2019-02-22T16:17:38.479Z,40.58
2019-02-22T16:20:08.133Z,44.03
2019-02-22T16:22:36.444Z,36.93
2019-02-22T16:25:06.294Z,41.73
2019-02-22T16:27:34.551Z,37.50
2019-02-22T16:30:03.080Z,44.00
2019-02-22T16:32:31.441Z,45.08
2019-02-22T16:34:59.765Z,41.90
2019-02-22T16:37:28.067Z,43.80
2019-02-22T16:39:56.379Z,41.15
2019-02-22T16:42:24.692Z,44.73
2019-02-22T16:44:53.000Z,43.55
2019-02-22T16:47:21.618Z,45.78
2019-02-22T16:49:50.319Z,41.03
2019-02-22T16:52:18.613Z,43.23
2019-02-22T16:54:46.909Z,43.95
2019-02-22T16:57:15.559Z,42.90
2019-02-22T16:59:44.114Z,46.40
2019-02-22T17:02:12.523Z,41.95
2019-02-22T17:04:40.817Z,40.90
2019-02-22T17:07:09.219Z,46.42
2019-02-22T17:09:37.654Z,40.95
2019-02-22T17:12:06.953Z,39.10
2019-02-22T17:14:35.331Z,41.17
2019-02-22T17:17:03.764Z,39.03
2019-02-22T17:19:32.067Z,38.70
2019-02-22T17:22:00.670Z,41.53
2019-02-22T17:24:28.978Z,41.30
2019-02-22T17:26:57.522Z,39.30
2019-02-22T17:29:25.947Z,43.65
2019-02-22T17:31:54.243Z,41.25
2019-02-22T17:34:22.574Z,41.25
2019-02-22T17:36:50.875Z,39.08
2019-02-22T17:39:19.257Z,43.90
2019-02-22T17:41:47.591Z,39.00
2019-02-22T17:44:16.057Z,43.68
2019-02-22T17:46:44.384Z,44.10
2019-02-22T17:49:12.743Z,46.15
2019-02-22T17:51:41.077Z,45.05
2019-02-22T17:54:09.473Z,41.90
2019-02-22T17:56:37.785Z,44.83
2019-02-22T17:59:06.348Z,46.57
2019-02-22T18:01:34.780Z,46.98
2019-02-22T18:04:03.094Z,46.70
2019-02-22T18:06:31.783Z,43.17
2019-02-22T18:09:00.215Z,43.20
2019-02-22T18:11:28.589Z,48.95
2019-02-22T18:13:57.040Z,46.80
2019-02-22T18:16:25.472Z,46.77
2019-02-22T18:18:54.091Z,42.87
2019-02-22T18:21:22.794Z,44.70
2019-02-22T18:23:51.088Z,43.50
2019-02-22T18:26:19.838Z,47.40
2019-02-22T18:28:48.146Z,48.73
2019-02-22T18:31:16.524Z,47.05
2019-02-22T18:33:44.883Z,42.67
2019-02-22T18:36:13.185Z,43.30
2019-02-22T18:38:41.528Z,43.42
2019-02-22T18:41:09.832Z,45.55
2019-02-22T18:43:38.155Z,44.00
2019-02-22T18:46:06.772Z,39.13
2019-02-22T18:48:35.187Z,44.18
2019-02-22T18:51:03.477Z,44.03
2019-02-22T18:53:31.793Z,41.88
2019-02-22T18:56:00.112Z,42.25
2019-02-22T18:58:28.504Z,42.15
2019-02-22T19:00:56.822Z,37.58
2019-02-22T19:03:25.167Z,34.95
2019-02-22T19:05:53.473Z,39.53
2019-02-22T19:08:31.835Z,31.82
2019-02-22T19:10:52.077Z,33.85
2019-02-22T19:13:20.391Z,34.97
2019-02-22T19:15:48.695Z,27.80
2019-02-22T19:18:17.264Z,28.57
2019-02-22T19:20:45.574Z,30.05
2019-02-22T19:23:13.901Z,29.37
2019-02-22T19:25:42.304Z,27.95
2019-02-22T19:28:10.958Z,30.23
2019-02-22T19:30:39.260Z,31.20
2019-02-22T19:33:07.585Z,29.35
2019-02-22T19:35:35.898Z,28.10
2019-02-22T19:38:04.648Z,25.30
2019-02-22T19:40:32.964Z,26.17
2019-02-22T19:43:01.635Z,28.07
2019-02-22T19:45:29.926Z,26.13
2019-02-22T19:47:58.274Z,28.70
2019-02-22T19:50:26.855Z,25.05
2019-02-22T19:52:55.186Z,26.87
2019-02-22T19:55:23.741Z,27.35
2019-02-22T19:57:52.043Z,26.60
2019-02-22T20:00:20.512Z,28.57
2019-02-22T20:02:49.177Z,26.35
2019-02-22T20:05:17.752Z,28.67
2019-02-22T20:07:46.063Z,28.05
2019-02-22T20:10:21.516Z,25.05
2019-02-22T20:12:50.162Z,24.97
2019-02-22T20:15:18.623Z,25.95
2019-02-22T20:17:54.222Z,23.92
2019-02-22T20:20:17.891Z,25.60
2019-02-22T20:22:46.299Z,22.87
2019-02-22T20:25:15.134Z,21.85
2019-02-22T20:27:43.464Z,28.00
2019-02-22T20:30:17.065Z,24.92
2019-02-22T20:32:45.388Z,24.55
2019-02-22T20:35:16.528Z,22.98
2019-02-22T20:37:52.543Z,25.45
2019-02-22T20:40:15.166Z,28.00
2019-02-22T20:42:43.702Z,24.00
2019-02-22T20:45:12.668Z,23.97
2019-02-22T20:47:41.212Z,24.50
2019-02-22T20:50:14.370Z,25.23
2019-02-22T20:52:42.673Z,26.25
2019-02-22T20:55:11.435Z,23.55
2019-02-22T20:57:40.035Z,24.35
2019-02-22T21:00:19.639Z,26.12
2019-02-22T21:02:48.241Z,24.75
2019-02-22T21:05:16.534Z,27.95
2019-02-22T21:07:44.873Z,28.87
2019-02-22T21:10:17.860Z,28.35
2019-02-22T21:12:46.168Z,27.27
2019-02-22T21:15:14.706Z,27.48
2019-02-22T21:17:43.071Z,29.02
2019-02-22T21:20:16.882Z,28.13
2019-02-22T21:22:45.451Z,28.73
2019-02-22T21:25:13.814Z,28.17
2019-02-22T21:27:42.125Z,30.27
2019-02-22T21:30:12.971Z,30.02
2019-02-22T21:32:41.282Z,29.72
2019-02-22T21:35:10.429Z,26.30
2019-02-22T21:37:40.070Z,26.40
2019-02-22T21:40:10.247Z,27.58
2019-02-22T21:42:38.558Z,28.27
2019-02-22T21:45:10.224Z,30.50
2019-02-22T21:47:38.524Z,29.30
2019-02-22T21:50:15.027Z,29.65
2019-02-22T21:52:43.487Z,29.83
2019-02-22T21:55:13.027Z,30.12
2019-02-22T21:57:41.339Z,31.97
2019-02-22T22:00:21.653Z,31.75
2019-02-22T22:02:50.318Z,32.70
2019-02-22T22:05:19.007Z,30.92
2019-02-22T22:07:47.670Z,33.33
2019-02-22T22:10:16.189Z,34.25
2019-02-22T22:12:44.480Z,31.67
2019-02-22T22:15:14.220Z,32.23
2019-02-22T22:17:42.562Z,32.70
2019-02-22T22:20:11.223Z,29.40
2019-02-22T22:22:39.916Z,31.80
2019-02-22T22:25:10.930Z,31.05
2019-02-22T22:27:39.251Z,30.47
2019-02-22T22:30:10.355Z,30.88
2019-02-22T22:32:38.659Z,33.55
2019-02-22T22:35:11.621Z,34.50
2019-02-22T22:37:40.040Z,28.92
2019-02-22T22:40:10.131Z,32.00
2019-02-22T22:42:38.432Z,31.27
2019-02-22T22:45:11.991Z,30.40
2019-02-22T22:47:40.282Z,30.68
2019-02-22T22:50:11.407Z,35.03
2019-02-22T22:52:39.776Z,29.43
2019-02-22T22:55:09.662Z,30.10
2019-02-22T22:57:37.967Z,30.05
2019-02-22T23:00:30.946Z,32.43
2019-02-22T23:02:59.234Z,32.65
2019-02-22T23:05:27.563Z,32.23
2019-02-22T23:07:55.884Z,31.65
2019-02-22T23:10:24.205Z,29.42
2019-02-22T23:12:52.510Z,33.45
2019-02-22T23:15:20.819Z,29.82
2019-02-22T23:17:49.121Z,29.43
2019-02-22T23:20:17.427Z,30.55
2019-02-22T23:22:45.758Z,33.70
2019-02-22T23:25:14.156Z,32.55
2019-02-22T23:27:42.457Z,31.35
2019-02-22T23:30:11.159Z,37.03
2019-02-22T23:32:39.465Z,30.45
2019-02-22T23:35:07.800Z,29.20
2019-02-22T23:37:36.094Z,29.80
2019-02-22T23:40:04.950Z,28.93
2019-02-22T23:42:33.235Z,32.25
2019-02-22T23:45:01.562Z,29.87
2019-02-22T23:47:29.847Z,29.25
2019-02-22T23:49:58.167Z,30.32
2019-02-22T23:52:27.185Z,31.97
2019-02-22T23:54:55.500Z,28.98
2019-02-22T23:57:23.811Z,28.20
2019-02-22T23:59:52.255Z,28.75
